createdAt,value
2018-07-14T00:00:59.122Z,11.73
2018-07-14T00:02:02.883Z,11.78
2018-07-14T00:03:06.688Z,11.12
2018-07-14T00:04:10.444Z,10.95
2018-07-14T00:05:14.279Z,11.08
2018-07-14T00:06:18.047Z,10.80
2018-07-14T00:07:21.985Z,10.88
2018-07-14T00:08:25.733Z,10.08
2018-07-14T00:09:29.100Z,9.70
2018-07-14T00:10:32.881Z,10.98
2018-07-14T00:11:36.621Z,11.40
2018-07-14T00:12:40.537Z,11.80
2018-07-14T00:13:44.274Z,10.20
2018-07-14T00:14:48.075Z,11.00
2018-07-14T00:15:51.826Z,9.78
2018-07-14T00:16:55.558Z,10.40
2018-07-14T00:17:59.370Z,11.25
2018-07-14T00:19:03.106Z,10.13
2018-07-14T00:20:07.000Z,10.00
2018-07-14T00:21:10.722Z,11.68
2018-07-14T00:22:14.491Z,10.43
2018-07-14T00:23:18.252Z,11.10
2018-07-14T00:24:22.099Z,10.20
2018-07-14T00:25:31.203Z,10.30
2018-07-14T00:26:34.914Z,9.80
2018-07-14T00:27:38.698Z,10.35
2018-07-14T00:28:42.457Z,10.10
2018-07-14T00:29:46.157Z,11.12
2018-07-14T00:30:49.577Z,10.25
2018-07-14T00:31:53.323Z,9.65
2018-07-14T00:32:57.047Z,9.98
2018-07-14T00:34:00.810Z,10.58
2018-07-14T00:35:04.618Z,10.63
2018-07-14T00:36:08.355Z,9.40
2018-07-14T00:37:12.167Z,9.58
2018-07-14T00:38:15.973Z,10.13
2018-07-14T00:39:19.729Z,9.33
2018-07-14T00:40:23.566Z,8.90
2018-07-14T00:41:26.972Z,9.30
2018-07-14T00:42:30.339Z,9.90
2018-07-14T00:43:34.018Z,10.20
2018-07-14T00:44:37.815Z,9.35
2018-07-14T00:45:41.643Z,8.78
2018-07-14T00:46:45.408Z,8.88
2018-07-14T00:47:49.216Z,9.70
2018-07-14T00:48:53.016Z,9.25
2018-07-14T00:49:56.807Z,9.60
2018-07-14T00:51:00.547Z,9.88
2018-07-14T00:52:04.531Z,9.60
2018-07-14T00:53:07.878Z,8.73
2018-07-14T00:54:11.651Z,9.40
2018-07-14T00:55:15.329Z,9.50
2018-07-14T00:56:19.101Z,9.28
2018-07-14T00:57:22.878Z,10.00
2018-07-14T00:58:26.529Z,9.88
2018-07-14T00:59:30.297Z,10.70
2018-07-14T01:00:34.177Z,10.00
2018-07-14T01:01:37.999Z,10.03
2018-07-14T01:02:41.674Z,9.90
2018-07-14T01:03:45.072Z,10.40
2018-07-14T01:04:48.768Z,10.20
2018-07-14T01:05:52.599Z,10.03
2018-07-14T01:06:56.315Z,10.38
2018-07-14T01:07:59.696Z,9.65
2018-07-14T01:09:03.648Z,9.75
2018-07-14T01:10:07.383Z,9.80
2018-07-14T01:11:11.304Z,9.50
2018-07-14T01:12:14.604Z,9.93
2018-07-14T01:13:18.360Z,8.78
2018-07-14T01:14:22.134Z,9.83
2018-07-14T01:15:25.909Z,9.38
2018-07-14T01:16:29.699Z,9.00
2018-07-14T01:17:33.506Z,9.60
2018-07-14T01:18:37.239Z,10.30
2018-07-14T01:19:41.197Z,9.13
2018-07-14T01:20:44.969Z,10.40
2018-07-14T01:21:48.726Z,9.10
2018-07-14T01:22:52.106Z,10.40
2018-07-14T01:23:55.965Z,10.00
2018-07-14T01:24:59.713Z,10.43
2018-07-14T01:26:03.121Z,10.68
2018-07-14T01:27:06.884Z,9.40
2018-07-14T01:28:10.680Z,10.30
2018-07-14T01:29:15.365Z,10.70
2018-07-14T01:30:19.185Z,11.57
2018-07-14T01:31:22.977Z,11.68
2018-07-14T01:32:26.640Z,11.85
2018-07-14T01:33:30.432Z,11.22
2018-07-14T01:34:34.216Z,11.10
2018-07-14T01:35:37.921Z,12.03
2018-07-14T01:36:41.628Z,11.97
2018-07-14T01:37:45.494Z,11.90
2018-07-14T01:38:49.211Z,12.75
2018-07-14T01:39:53.007Z,12.65
2018-07-14T01:40:56.780Z,11.25
2018-07-14T01:42:00.490Z,10.82
2018-07-14T01:43:04.358Z,11.22
2018-07-14T01:44:08.114Z,12.35
2018-07-14T01:45:11.995Z,11.08
2018-07-14T01:46:15.796Z,12.15
2018-07-14T01:47:19.467Z,11.22
2018-07-14T01:48:23.250Z,10.80
2018-07-14T01:49:27.102Z,11.55
2018-07-14T01:50:30.877Z,11.38
2018-07-14T01:51:34.656Z,11.18
2018-07-14T01:52:38.469Z,11.70
2018-07-14T01:53:42.219Z,12.07
2018-07-14T01:54:46.242Z,11.45
2018-07-14T01:55:50.144Z,11.10
2018-07-14T01:56:53.978Z,11.70
2018-07-14T01:57:57.748Z,11.90
2018-07-14T01:59:01.545Z,11.08
2018-07-14T02:00:05.394Z,11.35
2018-07-14T02:01:09.646Z,9.63
2018-07-14T02:02:13.470Z,10.60
2018-07-14T02:03:17.251Z,11.08
2018-07-14T02:04:21.073Z,10.65
2018-07-14T02:05:24.863Z,10.18
2018-07-14T02:06:28.673Z,10.58
2018-07-14T02:07:32.470Z,10.55
2018-07-14T02:08:36.142Z,10.20
2018-07-14T02:09:40.020Z,10.75
2018-07-14T02:10:43.725Z,10.38
2018-07-14T02:11:47.580Z,10.08
2018-07-14T02:12:51.308Z,10.82
2018-07-14T02:13:55.090Z,10.80
2018-07-14T02:14:58.976Z,11.63
2018-07-14T02:16:02.575Z,11.22
2018-07-14T02:17:06.354Z,11.00
2018-07-14T02:18:10.192Z,10.80
2018-07-14T02:19:13.979Z,10.60
2018-07-14T02:20:17.711Z,11.22
2018-07-14T02:21:21.434Z,12.10
2018-07-14T02:22:25.245Z,10.05
2018-07-14T02:23:29.007Z,12.18
2018-07-14T02:24:32.787Z,10.48
2018-07-14T02:25:36.634Z,10.45
2018-07-14T02:26:40.397Z,11.03
2018-07-14T02:27:44.202Z,10.53
2018-07-14T02:28:48.238Z,11.30
2018-07-14T02:29:51.994Z,10.58
2018-07-14T02:30:55.744Z,11.45
2018-07-14T02:31:59.478Z,10.90
2018-07-14T02:33:03.342Z,10.55
2018-07-14T02:34:06.820Z,11.45
2018-07-14T02:35:10.567Z,11.22
2018-07-14T02:36:14.422Z,10.65
2018-07-14T02:37:18.095Z,10.55
2018-07-14T02:38:21.863Z,11.78
2018-07-14T02:39:25.620Z,11.28
2018-07-14T02:40:29.348Z,11.20
2018-07-14T02:41:33.089Z,11.05
2018-07-14T02:42:36.824Z,10.60
2018-07-14T02:43:40.618Z,11.50
2018-07-14T02:44:44.466Z,10.85
2018-07-14T02:45:48.319Z,10.65
2018-07-14T02:46:52.056Z,10.80
2018-07-14T02:47:55.880Z,11.25
2018-07-14T02:48:59.547Z,10.32
2018-07-14T02:50:03.348Z,9.98
2018-07-14T02:51:07.304Z,11.03
2018-07-14T02:52:11.225Z,10.88
2018-07-14T02:53:14.977Z,11.55
2018-07-14T02:54:18.858Z,11.15
2018-07-14T02:55:22.237Z,11.33
2018-07-14T02:56:25.924Z,11.70
2018-07-14T02:57:29.652Z,12.60
2018-07-14T02:58:33.389Z,11.80
2018-07-14T02:59:37.169Z,12.40
2018-07-14T03:00:41.127Z,11.90
2018-07-14T03:01:44.911Z,12.35
2018-07-14T03:02:48.648Z,11.45
2018-07-14T03:03:52.490Z,12.20
2018-07-14T03:04:56.312Z,12.25
2018-07-14T03:06:00.013Z,11.05
2018-07-14T03:07:03.446Z,11.08
2018-07-14T03:08:07.218Z,11.90
2018-07-14T03:09:11.042Z,11.18
2018-07-14T03:10:14.909Z,12.50
2018-07-14T03:11:18.640Z,11.25
2018-07-14T03:12:22.456Z,11.30
2018-07-14T03:13:32.738Z,11.30
2018-07-14T03:14:36.556Z,12.15
2018-07-14T03:15:40.417Z,11.25
2018-07-14T03:16:44.265Z,11.22
2018-07-14T03:17:48.116Z,11.73
2018-07-14T03:18:51.843Z,11.90
2018-07-14T03:19:55.602Z,12.65
2018-07-14T03:20:59.358Z,12.73
2018-07-14T03:22:03.351Z,12.78
2018-07-14T03:23:07.248Z,14.15
2018-07-14T03:24:11.082Z,13.98
2018-07-14T03:25:14.804Z,13.90
2018-07-14T03:26:18.578Z,13.60
2018-07-14T03:27:22.017Z,13.30
2018-07-14T03:28:25.746Z,13.32
2018-07-14T03:29:29.550Z,13.30
2018-07-14T03:30:33.342Z,13.95
2018-07-14T03:31:37.072Z,14.43
2018-07-14T03:32:40.990Z,14.58
2018-07-14T03:33:44.747Z,15.03
2018-07-14T03:34:48.142Z,14.00
2018-07-14T03:35:51.920Z,15.13
2018-07-14T03:36:55.253Z,12.47
2018-07-14T03:37:58.940Z,12.90
2018-07-14T03:39:02.762Z,13.83
2018-07-14T03:40:06.705Z,13.80
2018-07-14T03:41:10.481Z,13.55
2018-07-14T03:42:14.257Z,14.75
2018-07-14T03:43:17.947Z,13.88
2018-07-14T03:44:21.728Z,15.32
2018-07-14T03:45:25.521Z,14.45
2018-07-14T03:46:29.334Z,13.93
2018-07-14T03:47:32.991Z,14.98
2018-07-14T03:48:36.750Z,14.90
2018-07-14T03:49:40.137Z,14.60
2018-07-14T03:50:43.895Z,14.50
2018-07-14T03:51:47.601Z,14.18
2018-07-14T03:52:51.696Z,14.95
2018-07-14T03:53:55.570Z,16.07
2018-07-14T03:54:59.249Z,18.02
2018-07-14T03:56:02.924Z,15.63
2018-07-14T03:57:06.645Z,15.75
2018-07-14T03:58:10.400Z,17.10
2018-07-14T03:59:14.163Z,16.80
2018-07-14T04:00:17.853Z,19.62
2018-07-14T04:01:21.714Z,18.70
2018-07-14T04:02:25.400Z,18.30
2018-07-14T04:03:28.719Z,21.68
2018-07-14T04:04:32.360Z,20.70
2018-07-14T04:05:35.740Z,21.45
2018-07-14T04:06:39.180Z,23.00
2018-07-14T04:07:42.921Z,22.67
2018-07-14T04:08:46.706Z,21.70
2018-07-14T04:09:50.144Z,21.90
2018-07-14T04:10:53.849Z,23.73
2018-07-14T04:11:57.669Z,24.87
2018-07-14T04:13:01.064Z,25.50
2018-07-14T04:14:04.910Z,26.33
2018-07-14T04:15:08.673Z,25.43
2018-07-14T04:16:12.131Z,25.50
2018-07-14T04:17:15.906Z,25.90
2018-07-14T04:18:19.578Z,26.20
2018-07-14T04:19:23.287Z,26.62
2018-07-14T04:20:27.033Z,25.08
2018-07-14T04:21:30.888Z,24.12
2018-07-14T04:22:34.625Z,26.82
2018-07-14T04:23:38.378Z,26.17
2018-07-14T04:24:42.096Z,27.40
2018-07-14T04:25:45.975Z,26.65
2018-07-14T04:26:49.826Z,24.55
2018-07-14T04:27:53.604Z,25.68
2018-07-14T04:28:56.948Z,26.05
2018-07-14T04:30:00.628Z,26.60
2018-07-14T04:31:04.225Z,26.77
2018-07-14T04:32:07.947Z,27.60
2018-07-14T04:33:11.677Z,28.30
2018-07-14T04:34:15.311Z,27.10
2018-07-14T04:35:19.059Z,28.85
2018-07-14T04:36:22.374Z,26.82
2018-07-14T04:37:26.131Z,27.87
2018-07-14T04:38:29.952Z,27.98
2018-07-14T04:39:33.672Z,29.50
2018-07-14T04:40:37.363Z,30.52
2018-07-14T04:41:41.053Z,27.65
2018-07-14T04:42:44.829Z,27.93
2018-07-14T04:43:48.625Z,29.57
2018-07-14T04:44:52.280Z,29.87
2018-07-14T04:45:55.926Z,28.15
2018-07-14T04:46:59.537Z,27.95
2018-07-14T04:48:03.242Z,27.55
2018-07-14T04:49:07.029Z,26.45
2018-07-14T04:50:10.865Z,28.17
2018-07-14T04:51:14.520Z,26.55
2018-07-14T04:52:18.267Z,28.47
2018-07-14T04:53:22.009Z,24.77
2018-07-14T04:54:25.725Z,24.72
2018-07-14T04:55:29.138Z,24.90
2018-07-14T04:56:32.909Z,25.50
2018-07-14T04:57:36.304Z,24.30
2018-07-14T04:58:39.995Z,25.35
2018-07-14T04:59:43.763Z,25.37
2018-07-14T05:00:47.497Z,25.20
2018-07-14T05:01:51.279Z,24.10
2018-07-14T05:02:54.981Z,24.27
2018-07-14T05:03:58.267Z,26.07
2018-07-14T05:05:01.901Z,24.50
2018-07-14T05:06:05.733Z,22.67
2018-07-14T05:07:09.471Z,22.98
2018-07-14T05:08:13.152Z,22.90
2018-07-14T05:09:16.824Z,22.85
2018-07-14T05:10:20.192Z,23.77
2018-07-14T05:11:23.889Z,22.75
2018-07-14T05:12:27.498Z,21.68
2018-07-14T05:13:31.117Z,23.47
2018-07-14T05:14:34.896Z,23.57
2018-07-14T05:15:38.649Z,23.60
2018-07-14T05:16:42.329Z,21.33
2018-07-14T05:17:46.026Z,23.85
2018-07-14T05:18:49.781Z,22.22
2018-07-14T05:19:53.460Z,22.13
2018-07-14T05:20:57.162Z,20.52
2018-07-14T05:22:00.912Z,23.65
2018-07-14T05:23:04.632Z,23.30
2018-07-14T05:24:08.019Z,23.20
2018-07-14T05:25:11.823Z,23.12
2018-07-14T05:26:15.528Z,22.77
2018-07-14T05:27:19.206Z,23.30
2018-07-14T05:28:22.529Z,23.30
2018-07-14T05:29:26.298Z,24.10
2018-07-14T05:30:30.035Z,23.18
2018-07-14T05:31:33.858Z,24.57
2018-07-14T05:32:37.594Z,23.83
2018-07-14T05:33:41.271Z,24.23
2018-07-14T05:34:45.018Z,23.98
2018-07-14T05:35:48.732Z,22.32
2018-07-14T05:36:52.373Z,24.40
2018-07-14T05:37:56.104Z,23.18
2018-07-14T05:38:59.811Z,21.80
2018-07-14T05:40:03.143Z,22.93
2018-07-14T05:41:06.997Z,21.35
2018-07-14T05:42:10.653Z,21.95
2018-07-14T05:43:14.275Z,20.68
2018-07-14T05:44:18.008Z,22.35
2018-07-14T05:45:21.745Z,22.27
2018-07-14T05:46:25.405Z,21.48
2018-07-14T05:47:29.096Z,22.50
2018-07-14T05:48:32.738Z,21.90
2018-07-14T05:49:36.426Z,22.20
2018-07-14T05:50:40.132Z,21.90
2018-07-14T05:51:43.838Z,23.20
2018-07-14T05:52:47.531Z,23.20
2018-07-14T05:53:51.245Z,22.22
2018-07-14T05:54:54.627Z,23.15
2018-07-14T05:55:58.392Z,22.02
2018-07-14T05:57:02.137Z,22.22
2018-07-14T05:58:05.842Z,22.17
2018-07-14T05:59:09.572Z,23.92
2018-07-14T06:00:13.230Z,23.67
2018-07-14T06:01:16.835Z,22.00
2018-07-14T06:02:20.442Z,22.48
2018-07-14T06:03:24.142Z,22.55
2018-07-14T06:04:27.476Z,22.40
2018-07-14T06:05:31.249Z,21.50
2018-07-14T06:06:34.976Z,22.20
2018-07-14T06:07:38.782Z,23.57
2018-07-14T06:08:42.530Z,23.98
2018-07-14T06:09:46.366Z,22.02
2018-07-14T06:10:50.137Z,23.30
2018-07-14T06:11:53.787Z,23.92
2018-07-14T06:12:57.476Z,23.50
2018-07-14T06:14:01.278Z,22.90
2018-07-14T06:15:05.184Z,23.10
2018-07-14T06:16:08.532Z,25.55
2018-07-14T06:17:12.312Z,23.15
2018-07-14T06:18:15.969Z,25.62
2018-07-14T06:19:19.858Z,22.13
2018-07-14T06:20:23.651Z,23.00
2018-07-14T06:21:27.406Z,25.08
2018-07-14T06:22:31.065Z,26.73
2018-07-14T06:23:34.776Z,25.23
2018-07-14T06:24:38.190Z,24.10
2018-07-14T06:25:41.922Z,22.77
2018-07-14T06:26:45.766Z,23.83
2018-07-14T06:27:49.401Z,22.07
2018-07-14T06:28:53.085Z,22.45
2018-07-14T06:29:56.816Z,23.55
2018-07-14T06:31:00.585Z,21.35
2018-07-14T06:32:04.313Z,21.70
2018-07-14T06:33:10.972Z,22.80
2018-07-14T06:34:15.015Z,22.80
2018-07-14T06:35:18.809Z,23.77
2018-07-14T06:36:22.505Z,23.57
2018-07-14T06:37:26.388Z,25.45
2018-07-14T06:38:30.243Z,23.83
2018-07-14T06:39:34.095Z,22.95
2018-07-14T06:40:37.846Z,24.40
2018-07-14T06:41:41.553Z,23.70
2018-07-14T06:42:45.555Z,24.87
2018-07-14T06:43:49.400Z,25.57
2018-07-14T06:44:53.200Z,25.92
2018-07-14T06:45:56.851Z,25.45
2018-07-14T06:47:00.572Z,22.75
2018-07-14T06:48:04.404Z,23.67
2018-07-14T06:49:08.297Z,23.67
2018-07-14T06:50:12.380Z,24.15
2018-07-14T06:51:16.095Z,22.90
2018-07-14T06:52:19.901Z,22.67
2018-07-14T06:53:23.780Z,22.80
2018-07-14T06:54:27.618Z,22.67
2018-07-14T06:55:31.543Z,22.73
2018-07-14T06:56:35.362Z,22.82
2018-07-14T06:57:39.218Z,24.00
2018-07-14T06:58:43.026Z,23.32
2018-07-14T06:59:46.943Z,23.80
2018-07-14T07:00:50.688Z,25.23
2018-07-14T07:01:54.518Z,24.32
2018-07-14T07:02:58.326Z,25.12
2018-07-14T07:04:02.216Z,23.90
2018-07-14T07:05:06.011Z,24.80
2018-07-14T07:06:09.902Z,25.80
2018-07-14T07:07:13.693Z,23.15
2018-07-14T07:08:17.044Z,26.05
2018-07-14T07:09:20.906Z,25.20
2018-07-14T07:10:24.692Z,25.57
2018-07-14T07:11:28.523Z,24.70
2018-07-14T07:12:31.907Z,23.65
2018-07-14T07:13:35.743Z,23.12
2018-07-14T07:14:39.665Z,22.22
2018-07-14T07:15:43.569Z,23.60
2018-07-14T07:16:47.545Z,24.07
2018-07-14T07:17:51.311Z,23.30
2018-07-14T07:18:55.224Z,22.62
2018-07-14T07:19:59.039Z,21.40
2018-07-14T07:21:02.828Z,25.43
2018-07-14T07:22:06.667Z,22.07
2018-07-14T07:23:10.520Z,22.95
2018-07-14T07:24:14.381Z,24.12
2018-07-14T07:25:17.749Z,23.92
2018-07-14T07:26:21.603Z,23.77
2018-07-14T07:27:25.420Z,21.45
2018-07-14T07:28:29.335Z,21.50
2018-07-14T07:29:33.223Z,22.62
2018-07-14T07:30:36.972Z,19.92
2018-07-14T07:31:40.863Z,21.30
2018-07-14T07:32:51.048Z,20.48
2018-07-14T07:33:55.107Z,20.35
2018-07-14T07:34:58.798Z,20.23
2018-07-14T07:36:02.483Z,19.17
2018-07-14T07:37:06.595Z,20.77
2018-07-14T07:38:10.274Z,20.70
2018-07-14T07:39:14.079Z,20.52
2018-07-14T07:40:17.813Z,21.73
2018-07-14T07:41:21.529Z,19.98
2018-07-14T07:42:25.247Z,20.77
2018-07-14T07:43:29.017Z,21.35
2018-07-14T07:44:32.393Z,20.68
2018-07-14T07:45:36.206Z,20.30
2018-07-14T07:46:46.475Z,20.12
2018-07-14T07:47:50.281Z,20.82
2018-07-14T07:48:53.960Z,21.85
2018-07-14T07:49:57.329Z,19.00
2018-07-14T07:51:01.088Z,20.48
2018-07-14T07:52:04.876Z,19.10
2018-07-14T07:53:08.615Z,17.10
2018-07-14T07:54:12.021Z,18.32
2018-07-14T07:55:15.737Z,19.30
2018-07-14T07:56:19.499Z,18.25
2018-07-14T07:57:22.924Z,18.30
2018-07-14T07:58:26.670Z,19.95
2018-07-14T07:59:30.115Z,20.15
2018-07-14T08:00:33.909Z,18.77
2018-07-14T08:01:37.657Z,18.60
2018-07-14T08:02:41.095Z,17.48
2018-07-14T08:03:44.783Z,19.73
2018-07-14T08:04:48.526Z,19.73
2018-07-14T08:05:51.915Z,19.42
2018-07-14T08:06:55.610Z,19.30
2018-07-14T08:07:58.916Z,19.35
2018-07-14T08:09:02.623Z,19.52
2018-07-14T08:10:06.452Z,18.00
2018-07-14T08:11:10.133Z,19.57
2018-07-14T08:12:13.813Z,18.92
2018-07-14T08:13:17.556Z,19.62
2018-07-14T08:14:21.355Z,18.37
2018-07-14T08:15:25.176Z,18.82
2018-07-14T08:16:28.839Z,19.95
2018-07-14T08:17:32.519Z,20.70
2018-07-14T08:18:36.349Z,19.10
2018-07-14T08:19:40.005Z,19.27
2018-07-14T08:20:43.474Z,18.60
2018-07-14T08:21:47.209Z,19.20
2018-07-14T08:22:51.556Z,19.20
2018-07-14T08:23:55.096Z,18.90
2018-07-14T08:24:58.883Z,18.65
2018-07-14T08:26:02.602Z,19.00
2018-07-14T08:27:06.328Z,19.90
2018-07-14T08:28:09.956Z,20.25
2018-07-14T08:29:13.712Z,19.77
2018-07-14T08:30:17.498Z,19.82
2018-07-14T08:31:21.273Z,19.45
2018-07-14T08:32:24.634Z,18.60
2018-07-14T08:33:28.297Z,18.55
2018-07-14T08:34:32.032Z,19.48
2018-07-14T08:35:35.344Z,18.02
2018-07-14T08:36:39.060Z,18.90
2018-07-14T08:37:42.726Z,19.48
2018-07-14T08:38:46.468Z,18.45
2018-07-14T08:39:50.221Z,18.87
2018-07-14T08:40:53.992Z,18.75
2018-07-14T08:41:57.760Z,19.67
2018-07-14T08:43:01.186Z,17.48
2018-07-14T08:44:04.868Z,18.95
2018-07-14T08:45:08.178Z,19.40
2018-07-14T08:46:11.835Z,20.15
2018-07-14T08:47:15.692Z,17.05
2018-07-14T08:48:19.506Z,19.37
2018-07-14T08:49:23.327Z,17.90
2018-07-14T08:50:27.251Z,17.00
2018-07-14T08:51:31.091Z,18.27
2018-07-14T08:52:34.869Z,17.40
2018-07-14T08:53:38.620Z,16.90
2018-07-14T08:54:42.358Z,16.70
2018-07-14T08:55:46.108Z,17.12
2018-07-14T08:56:49.754Z,17.20
2018-07-14T08:57:53.372Z,16.70
2018-07-14T08:58:57.065Z,17.17
2018-07-14T09:00:00.699Z,18.27
2018-07-14T09:01:04.447Z,17.27
2018-07-14T09:02:08.086Z,16.13
2018-07-14T09:03:11.900Z,17.13
2018-07-14T09:04:15.630Z,15.73
2018-07-14T09:05:19.292Z,15.33
2018-07-14T09:06:22.982Z,15.90
2018-07-14T09:07:29.524Z,15.30
2018-07-14T09:08:33.188Z,15.50
2018-07-14T09:09:36.862Z,16.00
2018-07-14T09:10:40.547Z,16.13
2018-07-14T09:11:44.320Z,15.90
2018-07-14T09:12:48.012Z,15.67
2018-07-14T09:13:51.764Z,15.20
2018-07-14T09:14:55.458Z,14.73
2018-07-14T09:15:59.081Z,14.33
2018-07-14T09:17:02.725Z,15.40
2018-07-14T09:18:06.554Z,14.10
2018-07-14T09:19:10.229Z,14.70
2018-07-14T09:20:13.548Z,13.77
2018-07-14T09:21:17.251Z,12.70
2018-07-14T09:22:20.856Z,13.10
2018-07-14T09:23:24.553Z,14.50
2018-07-14T09:24:28.266Z,14.27
2018-07-14T09:25:31.918Z,12.53
2018-07-14T09:26:35.629Z,13.37
2018-07-14T09:27:39.607Z,12.80
2018-07-14T09:28:43.379Z,12.50
2018-07-14T09:29:46.724Z,11.67
2018-07-14T09:30:50.357Z,11.70
2018-07-14T09:31:54.137Z,11.50
2018-07-14T09:32:57.810Z,11.87
2018-07-14T09:34:01.513Z,11.40
2018-07-14T09:35:05.224Z,10.40
2018-07-14T09:36:08.950Z,10.43
2018-07-14T09:37:12.715Z,10.80
2018-07-14T09:38:16.442Z,11.60
2018-07-14T09:39:20.111Z,10.50
2018-07-14T09:40:23.820Z,10.70
2018-07-14T09:41:27.461Z,10.33
2018-07-14T09:42:31.257Z,9.63
2018-07-14T09:43:34.913Z,10.00
2018-07-14T09:44:38.695Z,10.33
2018-07-14T09:45:42.443Z,9.80
2018-07-14T09:46:46.193Z,9.67
2018-07-14T09:47:50.038Z,10.57
2018-07-14T09:48:53.805Z,9.53
2018-07-14T09:49:57.589Z,9.60
2018-07-14T09:51:01.407Z,10.70
2018-07-14T09:52:05.066Z,10.13
2018-07-14T09:53:08.773Z,9.90
2018-07-14T09:54:12.429Z,9.33
2018-07-14T09:55:16.141Z,9.23
2018-07-14T09:56:19.817Z,8.97
2018-07-14T09:57:23.558Z,8.77
2018-07-14T09:58:27.368Z,9.60
2018-07-14T09:59:31.105Z,9.00
2018-07-14T10:00:35.591Z,8.40
2018-07-14T10:01:39.304Z,9.10
2018-07-14T10:02:43.054Z,9.00
2018-07-14T10:03:46.811Z,8.30
2018-07-14T10:04:50.528Z,8.40
2018-07-14T10:05:54.216Z,9.60
2018-07-14T10:06:57.871Z,7.93
2018-07-14T10:08:01.560Z,8.60
2018-07-14T10:09:05.522Z,7.87
2018-07-14T10:10:09.310Z,7.60
2018-07-14T10:11:12.970Z,8.57
2018-07-14T10:12:16.685Z,8.33
2018-07-14T10:13:20.447Z,7.80
2018-07-14T10:14:24.084Z,7.63
2018-07-14T10:15:27.793Z,7.20
2018-07-14T10:16:31.599Z,6.80
2018-07-14T10:17:34.971Z,6.50
2018-07-14T10:18:38.655Z,7.10
2018-07-14T10:19:42.308Z,6.77
2018-07-14T10:20:45.989Z,7.40
2018-07-14T10:21:49.272Z,6.47
2018-07-14T10:22:53.178Z,5.93
2018-07-14T10:23:56.876Z,7.07
2018-07-14T10:25:00.550Z,5.63
2018-07-14T10:26:04.273Z,6.20
2018-07-14T10:27:07.967Z,6.80
2018-07-14T10:28:11.651Z,6.60
2018-07-14T10:29:15.311Z,6.50
2018-07-14T10:30:19.018Z,7.10
2018-07-14T10:31:22.702Z,6.43
2018-07-14T10:32:26.008Z,6.60
2018-07-14T10:33:29.709Z,8.30
2018-07-14T10:34:33.339Z,6.63
2018-07-14T10:35:37.055Z,6.83
2018-07-14T10:36:47.202Z,7.30
2018-07-14T10:37:50.814Z,8.30
2018-07-14T10:38:54.581Z,7.10
2018-07-14T10:39:58.161Z,7.33
2018-07-14T10:41:01.851Z,6.50
2018-07-14T10:42:05.617Z,6.27
2018-07-14T10:43:08.928Z,7.17
2018-07-14T10:44:12.506Z,6.70
2018-07-14T10:45:16.367Z,6.80
2018-07-14T10:46:19.994Z,6.70
2018-07-14T10:47:23.548Z,5.63
2018-07-14T10:48:27.177Z,5.73
2018-07-14T10:49:30.759Z,6.00
2018-07-14T10:50:34.405Z,6.43
2018-07-14T10:51:38.150Z,5.30
2018-07-14T10:52:41.662Z,5.57
2018-07-14T10:53:45.214Z,6.60
2018-07-14T10:54:48.902Z,6.57
2018-07-14T10:55:52.501Z,6.30
2018-07-14T10:56:56.174Z,5.50
2018-07-14T10:57:59.873Z,5.43
2018-07-14T10:59:03.462Z,6.40
2018-07-14T11:00:07.386Z,6.70
2018-07-14T11:01:10.973Z,6.50
2018-07-14T11:02:14.587Z,6.60
2018-07-14T11:03:18.278Z,6.00
2018-07-14T11:04:21.944Z,5.60
2018-07-14T11:05:25.565Z,4.97
2018-07-14T11:06:29.196Z,5.80
2018-07-14T11:07:32.807Z,5.73
2018-07-14T11:08:36.445Z,6.73
2018-07-14T11:09:40.058Z,6.10
2018-07-14T11:10:43.743Z,5.03
2018-07-14T11:11:47.335Z,6.20
2018-07-14T11:12:50.875Z,5.57
2018-07-14T11:13:54.539Z,6.70
2018-07-14T11:14:58.158Z,5.20
2018-07-14T11:16:01.807Z,6.50
2018-07-14T11:17:05.484Z,6.67
2018-07-14T11:18:09.091Z,6.67
2018-07-14T11:19:12.647Z,6.70
2018-07-14T11:20:16.287Z,6.57
2018-07-14T11:21:19.843Z,6.53
2018-07-14T11:22:23.443Z,6.50
2018-07-14T11:23:27.014Z,7.43
2018-07-14T11:24:30.625Z,7.27
2018-07-14T11:25:34.255Z,5.87
2018-07-14T11:26:37.888Z,6.10
2018-07-14T11:27:41.465Z,6.30
2018-07-14T11:28:45.146Z,6.30
2018-07-14T11:29:48.806Z,6.50
2018-07-14T11:30:52.148Z,6.70
2018-07-14T11:31:55.747Z,6.47
2018-07-14T11:32:59.441Z,6.40
2018-07-14T11:34:03.198Z,6.87
2018-07-14T11:35:06.827Z,6.30
2018-07-14T11:36:10.481Z,5.73
2018-07-14T11:37:14.161Z,5.60
2018-07-14T11:38:17.460Z,6.47
2018-07-14T11:39:21.158Z,6.73
2018-07-14T11:40:24.801Z,7.50
2018-07-14T11:41:28.483Z,6.30
2018-07-14T11:42:32.082Z,6.90
2018-07-14T11:43:35.746Z,6.43
2018-07-14T11:44:39.349Z,7.73
2018-07-14T11:45:43.070Z,6.30
2018-07-14T11:46:46.740Z,7.40
2018-07-14T11:47:50.435Z,6.63
2018-07-14T11:48:54.049Z,6.40
2018-07-14T11:49:57.710Z,6.60
2018-07-14T11:51:01.336Z,5.53
2018-07-14T11:52:05.012Z,6.90
2018-07-14T11:53:08.648Z,7.07
2018-07-14T11:54:12.268Z,7.50
2018-07-14T11:55:15.880Z,7.37
2018-07-14T11:56:19.452Z,6.80
2018-07-14T11:57:23.147Z,6.50
2018-07-14T11:58:26.784Z,6.80
2018-07-14T11:59:30.080Z,7.20
2018-07-14T12:00:33.426Z,7.30
2018-07-14T12:01:37.043Z,7.83
2018-07-14T12:02:40.741Z,7.33
2018-07-14T12:03:44.392Z,7.03
2018-07-14T12:04:48.216Z,7.57
2018-07-14T12:05:51.907Z,7.67
2018-07-14T12:06:55.546Z,6.60
2018-07-14T12:07:59.215Z,6.23
2018-07-14T12:09:02.857Z,8.07
2018-07-14T12:10:06.489Z,7.60
2018-07-14T12:11:10.344Z,6.70
2018-07-14T12:12:13.989Z,7.37
2018-07-14T12:13:17.780Z,6.33
2018-07-14T12:14:20.992Z,7.20
2018-07-14T12:15:24.758Z,7.30
2018-07-14T12:16:28.006Z,6.30
2018-07-14T12:17:31.589Z,7.00
2018-07-14T12:18:35.288Z,6.93
2018-07-14T12:19:38.917Z,6.53
2018-07-14T12:20:42.546Z,6.97
2018-07-14T12:21:46.133Z,6.70
2018-07-14T12:22:49.775Z,6.80
2018-07-14T12:23:53.478Z,7.30
2018-07-14T12:24:57.094Z,6.40
2018-07-14T12:26:00.721Z,7.00
2018-07-14T12:27:04.362Z,6.33
2018-07-14T12:28:07.867Z,5.70
2018-07-14T12:29:11.679Z,6.73
2018-07-14T12:30:15.392Z,7.20
2018-07-14T12:31:19.007Z,6.63
2018-07-14T12:32:22.569Z,5.67
2018-07-14T12:33:26.212Z,6.10
2018-07-14T12:34:29.825Z,6.73
2018-07-14T12:35:33.471Z,7.00
2018-07-14T12:36:37.095Z,7.27
2018-07-14T12:37:40.737Z,7.33
2018-07-14T12:38:44.396Z,6.10
2018-07-14T12:39:47.995Z,7.10
2018-07-14T12:40:51.622Z,6.93
2018-07-14T12:41:55.282Z,7.07
2018-07-14T12:42:58.917Z,7.47
2018-07-14T12:44:02.555Z,6.80
2018-07-14T12:45:06.167Z,7.60
2018-07-14T12:46:09.863Z,6.93
2018-07-14T12:47:13.601Z,6.60
2018-07-14T12:48:17.222Z,6.50
2018-07-14T12:49:20.853Z,6.50
2018-07-14T12:50:24.531Z,6.67
2018-07-14T12:51:28.122Z,7.17
2018-07-14T12:52:31.756Z,6.20
2018-07-14T12:53:35.458Z,5.80
2018-07-14T12:54:39.961Z,6.50
2018-07-14T12:55:43.279Z,6.83
2018-07-14T12:56:46.916Z,7.60
2018-07-14T12:57:50.749Z,7.70
2018-07-14T12:58:54.382Z,7.47
2018-07-14T12:59:58.119Z,6.53
2018-07-14T13:01:01.757Z,6.33
2018-07-14T13:02:05.407Z,7.63
2018-07-14T13:03:08.667Z,7.17
2018-07-14T13:04:12.362Z,6.80
2018-07-14T13:05:15.987Z,6.90
2018-07-14T13:06:19.264Z,5.60
2018-07-14T13:07:22.577Z,6.07
2018-07-14T13:08:26.265Z,7.00
2018-07-14T13:09:29.968Z,5.90
2018-07-14T13:10:33.809Z,7.20
2018-07-14T13:11:37.595Z,7.50
2018-07-14T13:12:41.287Z,6.80
2018-07-14T13:13:45.016Z,7.80
2018-07-14T13:14:48.728Z,7.07
2018-07-14T13:15:52.399Z,8.13
2018-07-14T13:16:56.073Z,7.30
2018-07-14T13:17:59.782Z,6.80
2018-07-14T13:19:03.456Z,9.40
2018-07-14T13:20:07.109Z,6.73
2018-07-14T13:21:10.777Z,6.70
2018-07-14T13:22:14.426Z,7.40
2018-07-14T13:23:18.083Z,7.83
2018-07-14T13:24:21.734Z,6.53
2018-07-14T13:25:25.047Z,6.87
2018-07-14T13:26:28.612Z,6.93
2018-07-14T13:27:32.254Z,7.57
2018-07-14T13:28:35.942Z,7.63
2018-07-14T13:29:39.795Z,6.60
2018-07-14T13:30:43.114Z,6.97
2018-07-14T13:31:46.712Z,7.20
2018-07-14T13:32:50.345Z,7.37
2018-07-14T13:33:54.074Z,6.83
2018-07-14T13:34:57.720Z,7.47
2018-07-14T13:36:01.429Z,7.00
2018-07-14T13:37:05.000Z,8.00
2018-07-14T13:38:08.632Z,7.30
2018-07-14T13:39:12.015Z,7.27
2018-07-14T13:40:15.562Z,6.93
2018-07-14T13:41:19.208Z,6.77
2018-07-14T13:42:22.476Z,6.67
2018-07-14T13:43:25.753Z,6.90
2018-07-14T13:44:29.039Z,6.37
2018-07-14T13:45:32.335Z,6.50
2018-07-14T13:46:35.974Z,7.13
2018-07-14T13:47:39.661Z,5.97
2018-07-14T13:48:43.247Z,6.83
2018-07-14T13:49:46.964Z,6.87
2018-07-14T13:50:50.602Z,6.07